sensor_id;sensor_type;location;lat;lon;timestamp;pressure;altitude;pressure_sealevel;temperature;humidity
61018;BME280;48171;51.550;5.434;2022-10-16T00:01:07;101030.56;;;12.00;100.00
61018;BME280;48171;51.550;5.434;2022-10-16T00:03:33;101036.75;;;11.99;100.00
61018;BME280;48171;51.550;5.434;2022-10-16T00:05:59;101031.44;;;11.97;100.00
61018;BME280;48171;51.550;5.434;2022-10-16T00:08:25;101020.91;;;11.96;100.00
61018;BME280;48171;51.550;5.434;2022-10-16T00:10:50;101020.91;;;11.94;100.00
61018;BME280;48171;51.550;5.434;2022-10-16T00:13:16;101021.78;;;11.95;100.00
61018;BME280;48171;51.550;5.434;2022-10-16T00:15:43;101014.75;;;11.91;100.00
61018;BME280;48171;51.550;5.434;2022-10-16T00:18:09;101031.50;;;11.91;100.00
61018;BME280;48171;51.550;5.434;2022-10-16T00:20:35;101036.84;;;11.90;100.00
61018;BME280;48171;51.550;5.434;2022-10-16T00:23:02;101031.53;;;11.88;100.00
61018;BME280;48171;51.550;5.434;2022-10-16T00:25:28;101037.69;;;11.87;100.00
61018;BME280;48171;51.550;5.434;2022-10-16T00:27:53;101032.44;;;11.86;100.00
61018;BME280;48171;51.550;5.434;2022-10-16T00:30:19;101027.16;;;11.84;100.00
61018;BME280;48171;51.550;5.434;2022-10-16T00:32:44;101039.53;;;11.82;100.00
61018;BME280;48171;51.550;5.434;2022-10-16T00:35:09;101025.44;;;11.78;100.00
61018;BME280;48171;51.550;5.434;2022-10-16T00:37:34;101022.78;;;11.75;100.00
61018;BME280;48171;51.550;5.434;2022-10-16T00:40:00;101030.78;;;11.74;100.00
61018;BME280;48171;51.550;5.434;2022-10-16T00:42:25;101031.66;;;11.74;100.00
61018;BME280;48171;51.550;5.434;2022-10-16T00:44:53;101032.53;;;11.73;100.00
61018;BME280;48171;51.550;5.434;2022-10-16T00:50:08;101038.72;;;11.72;100.00
61018;BME280;48171;51.550;5.434;2022-10-16T00:52:35;101032.56;;;11.69;100.00
61018;BME280;48171;51.550;5.434;2022-10-16T00:55:02;101029.97;;;11.66;100.00
61018;BME280;48171;51.550;5.434;2022-10-16T00:57:28;101040.56;;;11.66;100.00
61018;BME280;48171;51.550;5.434;2022-10-16T00:59:54;101038.78;;;11.65;100.00
61018;BME280;48171;51.550;5.434;2022-10-16T01:02:19;101029.97;;;11.63;100.00
61018;BME280;48171;51.550;5.434;2022-10-16T01:04:48;101029.13;;;11.60;100.00
61018;BME280;48171;51.550;5.434;2022-10-16T01:13:05;101028.25;;;11.61;100.00
61018;BME280;48171;51.550;5.434;2022-10-16T01:15:42;101022.09;;;11.59;100.00
61018;BME280;48171;51.550;5.434;2022-10-16T01:18:20;101022.97;;;11.58;100.00
61018;BME280;48171;51.550;5.434;2022-10-16T01:21:16;101026.50;;;11.57;100.00
61018;BME280;48171;51.550;5.434;2022-10-16T01:24:17;101028.25;;;11.58;100.00
61018;BME280;48171;51.550;5.434;2022-10-16T01:27:14;101039.75;;;11.57;100.00
61018;BME280;48171;51.550;5.434;2022-10-16T01:34:55;101034.44;;;11.57;100.00
61018;BME280;48171;51.550;5.434;2022-10-16T01:40:19;101028.25;;;11.60;100.00
61018;BME280;48171;51.550;5.434;2022-10-16T01:42:51;101025.59;;;11.61;100.00
61018;BME280;48171;51.550;5.434;2022-10-16T01:45:18;101037.06;;;11.60;100.00
61018;BME280;48171;51.550;5.434;2022-10-16T01:47:46;101034.41;;;11.59;100.00
61018;BME280;48171;51.550;5.434;2022-10-16T01:50:14;101038.81;;;11.60;100.00
61018;BME280;48171;51.550;5.434;2022-10-16T01:52:43;101020.31;;;11.58;100.00
61018;BME280;48171;51.550;5.434;2022-10-16T01:55:13;101027.34;;;11.61;100.00
61018;BME280;48171;51.550;5.434;2022-10-16T01:57:42;101023.81;;;11.62;100.00
61018;BME280;48171;51.550;5.434;2022-10-16T02:00:12;101029.09;;;11.64;100.00
61018;BME280;48171;51.550;5.434;2022-10-16T02:02:42;101026.47;;;11.60;100.00
61018;BME280;48171;51.550;5.434;2022-10-16T02:05:20;101027.28;;;11.70;100.00
61018;BME280;48171;51.550;5.434;2022-10-16T02:07:47;101036.13;;;11.68;100.00
61018;BME280;48171;51.550;5.434;2022-10-16T02:10:13;101036.13;;;11.68;100.00
61018;BME280;48171;51.550;5.434;2022-10-16T02:12:42;101043.16;;;11.67;100.00
61018;BME280;48171;51.550;5.434;2022-10-16T02:15:09;101039.66;;;11.67;100.00
61018;BME280;48171;51.550;5.434;2022-10-16T02:17:34;101035.22;;;11.69;100.00
61018;BME280;48171;51.550;5.434;2022-10-16T02:20:00;101035.25;;;11.66;100.00
61018;BME280;48171;51.550;5.434;2022-10-16T02:22:30;101039.66;;;11.67;100.00
61018;BME280;48171;51.550;5.434;2022-10-16T02:25:17;101030.84;;;11.65;100.00
61018;BME280;48171;51.550;5.434;2022-10-16T02:27:54;101035.25;;;11.66;100.00
61018;BME280;48171;51.550;5.434;2022-10-16T02:30:39;101032.63;;;11.66;100.00
61018;BME280;48171;51.550;5.434;2022-10-16T02:33:08;101034.41;;;11.62;100.00
61018;BME280;48171;51.550;5.434;2022-10-16T02:35:35;101032.66;;;11.59;100.00
61018;BME280;48171;51.550;5.434;2022-10-16T02:38:01;101034.41;;;11.59;100.00
61018;BME280;48171;51.550;5.434;2022-10-16T02:40:27;101040.63;;;11.56;100.00
61018;BME280;48171;51.550;5.434;2022-10-16T02:42:54;101045.03;;;11.56;100.00
61018;BME280;48171;51.550;5.434;2022-10-16T02:45:20;101039.75;;;11.54;100.00
61018;BME280;48171;51.550;5.434;2022-10-16T02:47:46;101042.41;;;11.53;100.00
61018;BME280;48171;51.550;5.434;2022-10-16T02:50:11;101045.94;;;11.53;100.00
61018;BME280;48171;51.550;5.434;2022-10-16T02:52:36;101038.00;;;11.53;100.00
61018;BME280;48171;51.550;5.434;2022-10-16T02:55:02;101032.72;;;11.52;100.00
61018;BME280;48171;51.550;5.434;2022-10-16T02:57:27;101028.31;;;11.51;100.00
61018;BME280;48171;51.550;5.434;2022-10-16T02:59:52;101026.56;;;11.50;100.00
61018;BME280;48171;51.550;5.434;2022-10-16T03:02:18;101027.44;;;11.49;100.00
61018;BME280;48171;51.550;5.434;2022-10-16T03:04:43;101034.50;;;11.48;100.00
61018;BME280;48171;51.550;5.434;2022-10-16T03:07:08;101031.88;;;11.47;100.00
61018;BME280;48171;51.550;5.434;2022-10-16T03:09:34;101042.44;;;11.48;100.00
61018;BME280;48171;51.550;5.434;2022-10-16T03:11:59;101043.31;;;11.47;100.00
61018;BME280;48171;51.550;5.434;2022-10-16T03:14:24;101042.44;;;11.45;100.00
61018;BME280;48171;51.550;5.434;2022-10-16T03:16:50;101040.72;;;11.46;100.00
61018;BME280;48171;51.550;5.434;2022-10-16T03:19:18;101042.50;;;11.44;100.00
61018;BME280;48171;51.550;5.434;2022-10-16T03:21:43;101056.59;;;11.46;100.00
61018;BME280;48171;51.550;5.434;2022-10-16T03:24:09;101055.72;;;11.44;100.00
61018;BME280;48171;51.550;5.434;2022-10-16T03:26:34;101066.25;;;11.45;100.00
61018;BME280;48171;51.550;5.434;2022-10-16T03:29:00;101060.97;;;11.45;100.00
61018;BME280;48171;51.550;5.434;2022-10-16T03:31:27;101074.19;;;11.45;100.00
61018;BME280;48171;51.550;5.434;2022-10-16T03:33:52;101074.19;;;11.45;100.00
61018;BME280;48171;51.550;5.434;2022-10-16T03:36:18;101077.75;;;11.46;100.00
61018;BME280;48171;51.550;5.434;2022-10-16T03:38:43;101077.75;;;11.46;100.00
61018;BME280;48171;51.550;5.434;2022-10-16T03:41:08;101074.19;;;11.45;100.00
61018;BME280;48171;51.550;5.434;2022-10-16T03:43:33;101082.13;;;11.45;100.00
61018;BME280;48171;51.550;5.434;2022-10-16T03:45:59;101078.63;;;11.45;100.00
61018;BME280;48171;51.550;5.434;2022-10-16T03:48:24;101073.34;;;11.43;100.00
61018;BME280;48171;51.550;5.434;2022-10-16T03:50:49;101081.28;;;11.45;100.00
61018;BME280;48171;51.550;5.434;2022-10-16T03:53:16;101075.97;;;11.43;100.00
61018;BME280;48171;51.550;5.434;2022-10-16T03:55:42;101082.19;;;11.44;100.00
61018;BME280;48171;51.550;5.434;2022-10-16T03:58:08;101083.03;;;11.44;100.00
61018;BME280;48171;51.550;5.434;2022-10-16T04:00:33;101083.03;;;11.44;100.00
61018;BME280;48171;51.550;5.434;2022-10-16T04:02:59;101090.06;;;11.47;100.00
61018;BME280;48171;51.550;5.434;2022-10-16T04:05:25;101092.72;;;11.48;100.00
61018;BME280;48171;51.550;5.434;2022-10-16T04:07:50;101091.84;;;11.48;100.00
61018;BME280;48171;51.550;5.434;2022-10-16T04:10:15;101089.19;;;11.48;100.00
61018;BME280;48171;51.550;5.434;2022-10-16T04:12:40;101095.38;;;11.48;100.00
61018;BME280;48171;51.550;5.434;2022-10-16T04:15:06;101086.56;;;11.46;100.00
61018;BME280;48171;51.550;5.434;2022-10-16T04:17:32;101089.19;;;11.48;100.00
61018;BME280;48171;51.550;5.434;2022-10-16T04:19:57;101091.84;;;11.48;100.00
61018;BME280;48171;51.550;5.434;2022-10-16T04:22:22;101088.31;;;11.47;100.00
61018;BME280;48171;51.550;5.434;2022-10-16T04:24:47;101103.31;;;11.47;100.00
61018;BME280;48171;51.550;5.434;2022-10-16T04:27:13;101101.56;;;11.46;100.00
61018;BME280;48171;51.550;5.434;2022-10-16T04:29:38;101085.69;;;11.43;100.00
61018;BME280;48171;51.550;5.434;2022-10-16T04:32:03;101094.50;;;11.46;100.00
61018;BME280;48171;51.550;5.434;2022-10-16T04:34:28;101090.97;;;11.46;100.00
61018;BME280;48171;51.550;5.434;2022-10-16T04:36:54;101093.63;;;11.44;100.00
61018;BME280;48171;51.550;5.434;2022-10-16T04:39:19;101106.84;;;11.46;100.00
61018;BME280;48171;51.550;5.434;2022-10-16T04:41:44;101112.13;;;11.47;100.00
61018;BME280;48171;51.550;5.434;2022-10-16T04:44:10;101108.59;;;11.48;100.00
61018;BME280;48171;51.550;5.434;2022-10-16T04:46:35;101107.72;;;11.48;100.00
61018;BME280;48171;51.550;5.434;2022-10-16T04:49:00;101115.66;;;11.48;100.00
61018;BME280;48171;51.550;5.434;2022-10-16T04:51:26;101120.97;;;11.48;100.00
61018;BME280;48171;51.550;5.434;2022-10-16T04:53:53;101122.72;;;11.46;100.00
61018;BME280;48171;51.550;5.434;2022-10-16T04:56:18;101123.59;;;11.46;100.00
61018;BME280;48171;51.550;5.434;2022-10-16T04:58:43;101119.19;;;11.45;100.00
61018;BME280;48171;51.550;5.434;2022-10-16T05:01:09;101126.25;;;11.43;100.00
61018;BME280;48171;51.550;5.434;2022-10-16T05:03:34;101134.22;;;11.41;100.00
61018;BME280;48171;51.550;5.434;2022-10-16T05:05:59;101137.75;;;11.40;100.00
61018;BME280;48171;51.550;5.434;2022-10-16T05:08:25;101142.13;;;11.43;100.00
61018;BME280;48171;51.550;5.434;2022-10-16T05:10:50;101143.03;;;11.44;100.00
61018;BME280;48171;51.550;5.434;2022-10-16T05:13:15;101144.78;;;11.43;100.00
61018;BME280;48171;51.550;5.434;2022-10-16T05:15:40;101148.31;;;11.40;100.00
61018;BME280;48171;51.550;5.434;2022-10-16T05:18:06;101142.16;;;11.38;100.00
61018;BME280;48171;51.550;5.434;2022-10-16T05:20:31;101143.94;;;11.39;100.00
61018;BME280;48171;51.550;5.434;2022-10-16T05:22:56;101149.22;;;11.38;100.00
61018;BME280;48171;51.550;5.434;2022-10-16T05:25:22;101141.28;;;11.36;100.00
61018;BME280;48171;51.550;5.434;2022-10-16T05:27:48;101143.06;;;11.34;100.00
61018;BME280;48171;51.550;5.434;2022-10-16T05:30:14;101152.78;;;11.35;100.00
61018;BME280;48171;51.550;5.434;2022-10-16T05:32:39;101162.47;;;11.35;100.00
61018;BME280;48171;51.550;5.434;2022-10-16T05:35:04;101162.50;;;11.32;100.00
61018;BME280;48171;51.550;5.434;2022-10-16T05:37:30;101168.66;;;11.34;100.00
61018;BME280;48171;51.550;5.434;2022-10-16T05:39:55;101172.16;;;11.33;100.00
61018;BME280;48171;51.550;5.434;2022-10-16T05:42:20;101175.72;;;11.33;100.00
61018;BME280;48171;51.550;5.434;2022-10-16T05:44:46;101181.88;;;11.31;100.00
61018;BME280;48171;51.550;5.434;2022-10-16T05:47:12;101191.59;;;11.32;100.00
61018;BME280;48171;51.550;5.434;2022-10-16T05:49:39;101194.22;;;11.30;100.00
61018;BME280;48171;51.550;5.434;2022-10-16T05:52:04;101206.59;;;11.30;100.00
61018;BME280;48171;51.550;5.434;2022-10-16T05:54:29;101213.66;;;11.29;100.00
61018;BME280;48171;51.550;5.434;2022-10-16T05:56:55;101211.00;;;11.29;100.00
61018;BME280;48171;51.550;5.434;2022-10-16T05:59:20;101218.03;;;11.29;100.00
61018;BME280;48171;51.550;5.434;2022-10-16T06:01:45;101225.09;;;11.27;100.00
61018;BME280;48171;51.550;5.434;2022-10-16T06:04:10;101219.84;;;11.25;100.00
61018;BME280;48171;51.550;5.434;2022-10-16T06:06:36;101228.66;;;11.26;100.00
61018;BME280;48171;51.550;5.434;2022-10-16T06:09:02;101236.56;;;11.24;100.00
61018;BME280;48171;51.550;5.434;2022-10-16T06:11:29;101232.19;;;11.20;100.00
61018;BME280;48171;51.550;5.434;2022-10-16T06:13:57;101245.41;;;11.21;100.00
61018;BME280;48171;51.550;5.434;2022-10-16T06:16:24;101247.16;;;11.23;100.00
61018;BME280;48171;51.550;5.434;2022-10-16T06:18:51;101252.44;;;11.23;100.00
61018;BME280;48171;51.550;5.434;2022-10-16T06:21:19;101244.53;;;11.19;100.00
61018;BME280;48171;51.550;5.434;2022-10-16T06:23:45;101255.13;;;11.19;100.00
61018;BME280;48171;51.550;5.434;2022-10-16T06:26:15;101264.78;;;11.20;100.00
61018;BME280;48171;51.550;5.434;2022-10-16T06:28:41;101258.63;;;11.18;100.00
61018;BME280;48171;51.550;5.434;2022-10-16T06:31:07;101270.13;;;11.17;100.00
61018;BME280;48171;51.550;5.434;2022-10-16T06:33:34;101259.53;;;11.17;100.00
61018;BME280;48171;51.550;5.434;2022-10-16T06:36:05;101273.63;;;11.18;100.00
61018;BME280;48171;51.550;5.434;2022-10-16T06:38:31;101280.69;;;11.17;100.00
61018;BME280;48171;51.550;5.434;2022-10-16T06:40:56;101285.97;;;11.19;100.00
61018;BME280;48171;51.550;5.434;2022-10-16T06:43:22;101281.56;;;11.19;100.00
61018;BME280;48171;51.550;5.434;2022-10-16T06:45:55;101289.50;;;11.21;100.00
61018;BME280;48171;51.550;5.434;2022-10-16T06:48:21;101293.03;;;11.21;100.00
61018;BME280;48171;51.550;5.434;2022-10-16T06:50:59;101292.13;;;11.27;100.00
61018;BME280;48171;51.550;5.434;2022-10-16T06:53:27;101300.94;;;11.29;100.00
61018;BME280;48171;51.550;5.434;2022-10-16T06:55:53;101299.19;;;11.31;100.00
61018;BME280;48171;51.550;5.434;2022-10-16T06:58:18;101302.66;;;11.36;100.00
61018;BME280;48171;51.550;5.434;2022-10-16T07:00:44;101304.41;;;11.39;100.00
61018;BME280;48171;51.550;5.434;2022-10-16T07:03:09;101306.16;;;11.45;100.00
61018;BME280;48171;51.550;5.434;2022-10-16T07:05:42;101306.16;;;11.51;100.00
61018;BME280;48171;51.550;5.434;2022-10-16T07:08:08;101312.31;;;11.53;100.00
61018;BME280;48171;51.550;5.434;2022-10-16T07:10:34;101324.66;;;11.58;100.00
61018;BME280;48171;51.550;5.434;2022-10-16T07:13:00;101325.53;;;11.64;100.00
61018;BME280;48171;51.550;5.434;2022-10-16T07:15:26;101330.81;;;11.65;100.00
61018;BME280;48171;51.550;5.434;2022-10-16T07:17:52;101329.91;;;11.69;100.00
61018;BME280;48171;51.550;5.434;2022-10-16T07:20:17;101336.06;;;11.73;100.00
61018;BME280;48171;51.550;5.434;2022-10-16T07:22:43;101340.47;;;11.77;100.00
61018;BME280;48171;51.550;5.434;2022-10-16T07:25:08;101343.13;;;11.81;100.00
61018;BME280;48171;51.550;5.434;2022-10-16T07:27:33;101351.06;;;11.81;100.00
61018;BME280;48171;51.550;5.434;2022-10-16T07:29:59;101352.81;;;11.84;100.00
61018;BME280;48171;51.550;5.434;2022-10-16T07:32:24;101364.28;;;11.88;100.00
61018;BME280;48171;51.550;5.434;2022-10-16T07:34:51;101371.34;;;11.90;100.00
61018;BME280;48171;51.550;5.434;2022-10-16T07:37:16;101374.88;;;11.94;100.00
61018;BME280;48171;51.550;5.434;2022-10-16T07:39:41;101368.66;;;11.96;100.00
61018;BME280;48171;51.550;5.434;2022-10-16T07:42:07;101376.59;;;11.99;100.00
61018;BME280;48171;51.550;5.434;2022-10-16T07:44:32;101380.09;;;12.03;100.00
61018;BME280;48171;51.550;5.434;2022-10-16T07:46:58;101380.97;;;12.07;100.00
61018;BME280;48171;51.550;5.434;2022-10-16T07:49:23;101398.63;;;12.12;100.00
61018;BME280;48171;51.550;5.434;2022-10-16T07:51:48;101388.00;;;12.17;100.00
61018;BME280;48171;51.550;5.434;2022-10-16T07:54:13;101395.03;;;12.21;100.00
61018;BME280;48171;51.550;5.434;2022-10-16T07:56:39;101405.63;;;12.21;100.00
61018;BME280;48171;51.550;5.434;2022-10-16T07:59:04;101402.09;;;12.24;100.00
61018;BME280;48171;51.550;5.434;2022-10-16T08:01:29;101398.53;;;12.28;100.00
61018;BME280;48171;51.550;5.434;2022-10-16T08:03:55;101408.25;;;12.30;100.00
61018;BME280;48171;51.550;5.434;2022-10-16T08:06:21;101408.22;;;12.32;100.00
61018;BME280;48171;51.550;5.434;2022-10-16T08:08:47;101418.81;;;12.35;100.00
61018;BME280;48171;51.550;5.434;2022-10-16T08:11:13;101418.81;;;12.36;100.00
61018;BME280;48171;51.550;5.434;2022-10-16T08:13:39;101420.56;;;12.39;100.00
61018;BME280;48171;51.550;5.434;2022-10-16T08:16:05;101427.63;;;12.43;100.00
61018;BME280;48171;51.550;5.434;2022-10-16T08:18:37;101424.06;;;12.44;100.00
61018;BME280;48171;51.550;5.434;2022-10-16T08:21:04;101434.66;;;12.47;100.00
61018;BME280;48171;51.550;5.434;2022-10-16T08:23:29;101442.56;;;12.52;100.00
61018;BME280;48171;51.550;5.434;2022-10-16T08:25:56;101446.09;;;12.54;100.00
61018;BME280;48171;51.550;5.434;2022-10-16T08:28:27;101447.88;;;12.56;100.00
61018;BME280;48171;51.550;5.434;2022-10-16T08:30:52;101443.44;;;12.58;100.00
61018;BME280;48171;51.550;5.434;2022-10-16T08:33:18;101452.22;;;12.62;100.00
61018;BME280;48171;51.550;5.434;2022-10-16T08:35:52;101450.50;;;12.59;100.00
61018;BME280;48171;51.550;5.434;2022-10-16T08:38:19;101457.53;;;12.64;100.00
61018;BME280;48171;51.550;5.434;2022-10-16T08:40:44;101463.72;;;12.67;100.00
61018;BME280;48171;51.550;5.434;2022-10-16T08:46:16;101468.94;;;12.76;100.00
61018;BME280;48171;51.550;5.434;2022-10-16T08:48:48;101466.28;;;12.76;100.00
61018;BME280;48171;51.550;5.434;2022-10-16T08:51:35;101473.31;;;12.84;100.00
61018;BME280;48171;51.550;5.434;2022-10-16T08:54:09;101466.25;;;12.84;100.00
61018;BME280;48171;51.550;5.434;2022-10-16T08:56:38;101476.84;;;12.89;100.00
61018;BME280;48171;51.550;5.434;2022-10-16T08:59:06;101482.16;;;12.89;100.00
61018;BME280;48171;51.550;5.434;2022-10-16T09:01:44;101483.03;;;12.89;100.00
61018;BME280;48171;51.550;5.434;2022-10-16T09:07:04;101488.28;;;12.94;100.00
61018;BME280;48171;51.550;5.434;2022-10-16T09:09:44;101494.47;;;12.96;100.00
61018;BME280;48171;51.550;5.434;2022-10-16T09:12:21;101490.03;;;12.99;100.00
61018;BME280;48171;51.550;5.434;2022-10-16T09:22:38;101502.28;;;13.16;100.00
61018;BME280;48171;51.550;5.434;2022-10-16T09:25:15;101506.69;;;13.20;100.00
61018;BME280;48171;51.550;5.434;2022-10-16T09:27:44;101504.91;;;13.20;100.00
61018;BME280;48171;51.550;5.434;2022-10-16T09:30:13;101510.22;;;13.20;100.00
61018;BME280;48171;51.550;5.434;2022-10-16T09:32:38;101514.63;;;13.23;100.00
61018;BME280;48171;51.550;5.434;2022-10-16T09:35:12;101514.59;;;13.25;100.00
61018;BME280;48171;51.550;5.434;2022-10-16T09:37:39;101510.19;;;13.25;100.00
61018;BME280;48171;51.550;5.434;2022-10-16T09:40:11;101516.38;;;13.30;100.00
61018;BME280;48171;51.550;5.434;2022-10-16T09:42:37;101509.22;;;13.38;100.00
61018;BME280;48171;51.550;5.434;2022-10-16T09:45:03;101518.06;;;13.44;100.00
61018;BME280;48171;51.550;5.434;2022-10-16T09:47:30;101524.22;;;13.46;100.00
61018;BME280;48171;51.550;5.434;2022-10-16T09:49:58;101529.50;;;13.49;100.00
61018;BME280;48171;51.550;5.434;2022-10-16T09:52:30;101523.25;;;13.57;100.00
61018;BME280;48171;51.550;5.434;2022-10-16T09:57:22;101526.72;;;13.63;100.00
61018;BME280;48171;51.550;5.434;2022-10-16T10:02:19;101530.25;;;13.68;100.00
61018;BME280;48171;51.550;5.434;2022-10-16T10:04:51;101529.31;;;13.72;100.00
61018;BME280;48171;51.550;5.434;2022-10-16T10:07:24;101524.88;;;13.72;100.00
61018;BME280;48171;51.550;5.434;2022-10-16T10:09:50;101534.59;;;13.76;100.00
61018;BME280;48171;51.550;5.434;2022-10-16T10:12:27;101531.91;;;13.78;100.00
61018;BME280;48171;51.550;5.434;2022-10-16T10:14:56;101540.75;;;13.77;100.00
61018;BME280;48171;51.550;5.434;2022-10-16T10:17:27;101541.63;;;13.77;99.42
61018;BME280;48171;51.550;5.434;2022-10-16T10:22:31;101542.50;;;13.84;99.61
61018;BME280;48171;51.550;5.434;2022-10-16T10:25:12;101547.75;;;13.87;99.94
61018;BME280;48171;51.550;5.434;2022-10-16T10:39:02;101555.72;;;13.92;100.00
61018;BME280;48171;51.550;5.434;2022-10-16T10:47:00;101563.56;;;14.01;99.26
61018;BME280;48171;51.550;5.434;2022-10-16T10:49:37;101560.91;;;14.03;99.14
61018;BME280;48171;51.550;5.434;2022-10-16T10:55:03;101563.56;;;14.04;97.08
61018;BME280;48171;51.550;5.434;2022-10-16T10:57:44;101559.94;;;14.10;95.81
61018;BME280;48171;51.550;5.434;2022-10-16T11:00:21;101566.09;;;14.15;96.29
61018;BME280;48171;51.550;5.434;2022-10-16T11:05:44;101571.31;;;14.24;94.83
61018;BME280;48171;51.550;5.434;2022-10-16T11:08:18;101578.38;;;14.28;92.11
61018;BME280;48171;51.550;5.434;2022-10-16T11:10:57;101569.41;;;14.38;93.81
61018;BME280;48171;51.550;5.434;2022-10-16T11:13:30;101575.53;;;14.44;92.39
61018;BME280;48171;51.550;5.434;2022-10-16T11:16:02;101571.94;;;14.49;92.61
61018;BME280;48171;51.550;5.434;2022-10-16T11:21:19;101573.59;;;14.63;93.33
61018;BME280;48171;51.550;5.434;2022-10-16T11:23:55;101576.19;;;14.64;90.88
61018;BME280;48171;51.550;5.434;2022-10-16T11:26:27;101569.13;;;14.63;90.93
61018;BME280;48171;51.550;5.434;2022-10-16T11:28:54;101574.38;;;14.69;93.46
61018;BME280;48171;51.550;5.434;2022-10-16T11:31:37;101572.50;;;14.76;93.83
61018;BME280;48171;51.550;5.434;2022-10-16T11:34:12;101574.28;;;14.78;92.65
61018;BME280;48171;51.550;5.434;2022-10-16T11:37:07;101574.22;;;14.83;92.90
61018;BME280;48171;51.550;5.434;2022-10-16T11:39:33;101578.50;;;14.93;90.46
61018;BME280;48171;51.550;5.434;2022-10-16T11:42:08;101579.22;;;15.05;90.16
61018;BME280;48171;51.550;5.434;2022-10-16T11:44:55;101580.88;;;15.15;91.26
61018;BME280;48171;51.550;5.434;2022-10-16T11:47:48;101579.00;;;15.22;89.96
61018;BME280;48171;51.550;5.434;2022-10-16T11:50:27;101581.56;;;15.29;88.36
61018;BME280;48171;51.550;5.434;2022-10-16T11:53:01;101585.88;;;15.36;86.94
61018;BME280;48171;51.550;5.434;2022-10-16T11:55:37;101592.03;;;15.40;87.81
61018;BME280;48171;51.550;5.434;2022-10-16T11:58:27;101587.66;;;15.36;88.80
61018;BME280;48171;51.550;5.434;2022-10-16T12:01:17;101597.44;;;15.35;88.53
61018;BME280;48171;51.550;5.434;2022-10-16T12:06:34;101585.09;;;15.30;87.37
61018;BME280;48171;51.550;5.434;2022-10-16T12:09:03;101583.41;;;15.24;85.17
61018;BME280;48171;51.550;5.434;2022-10-16T12:17:00;101594.06;;;15.24;87.22
61018;BME280;48171;51.550;5.434;2022-10-16T12:19:28;101603.81;;;15.25;83.98
61018;BME280;48171;51.550;5.434;2022-10-16T12:21:59;101602.91;;;15.25;83.75
61018;BME280;48171;51.550;5.434;2022-10-16T12:24:37;101601.97;;;15.29;83.04
61018;BME280;48171;51.550;5.434;2022-10-16T12:27:06;101603.72;;;15.31;82.72
61018;BME280;48171;51.550;5.434;2022-10-16T12:29:37;101595.75;;;15.28;83.15
61018;BME280;48171;51.550;5.434;2022-10-16T12:34:48;101594.97;;;15.22;85.14
61018;BME280;48171;51.550;5.434;2022-10-16T12:37:28;101595.00;;;15.18;85.11
61018;BME280;48171;51.550;5.434;2022-10-16T12:39:56;101604.78;;;15.16;84.89
61018;BME280;48171;51.550;5.434;2022-10-16T12:44:51;101600.31;;;15.22;85.95
61018;BME280;48171;51.550;5.434;2022-10-16T12:47:38;101596.63;;;15.29;88.04
61018;BME280;48171;51.550;5.434;2022-10-16T12:50:37;101597.34;;;15.43;84.92
61018;BME280;48171;51.550;5.434;2022-10-16T12:53:17;101591.84;;;15.52;83.95
61018;BME280;48171;51.550;5.434;2022-10-16T12:55:55;101594.34;;;15.63;84.60
61018;BME280;48171;51.550;5.434;2022-10-16T12:58:33;101590.63;;;15.75;83.79
61018;BME280;48171;51.550;5.434;2022-10-16T13:01:29;101586.16;;;15.77;82.02
61018;BME280;48171;51.550;5.434;2022-10-16T13:04:09;101585.28;;;15.78;83.08
61018;BME280;48171;51.550;5.434;2022-10-16T13:06:39;101583.50;;;15.77;84.32
61018;BME280;48171;51.550;5.434;2022-10-16T13:21:11;101599.94;;;15.46;83.97
61018;BME280;48171;51.550;5.434;2022-10-16T13:24:15;101591.13;;;15.41;84.00
61018;BME280;48171;51.550;5.434;2022-10-16T13:27:07;101603.56;;;15.40;85.64
61018;BME280;48171;51.550;5.434;2022-10-16T13:29:35;101592.91;;;15.40;87.11
61018;BME280;48171;51.550;5.434;2022-10-16T13:32:07;101592.91;;;15.42;87.20
61018;BME280;48171;51.550;5.434;2022-10-16T13:34:43;101603.56;;;15.42;86.04
61018;BME280;48171;51.550;5.434;2022-10-16T13:37:18;101615.09;;;15.41;87.28
61018;BME280;48171;51.550;5.434;2022-10-16T13:39:43;101614.22;;;15.40;87.64
61018;BME280;48171;51.550;5.434;2022-10-16T13:42:22;101619.53;;;15.40;87.88
61018;BME280;48171;51.550;5.434;2022-10-16T13:44:51;101613.34;;;15.40;88.30
61018;BME280;48171;51.550;5.434;2022-10-16T13:47:22;101618.66;;;15.43;87.55
61018;BME280;48171;51.550;5.434;2022-10-16T13:50:19;101622.19;;;15.44;86.38
61018;BME280;48171;51.550;5.434;2022-10-16T13:52:44;101615.97;;;15.43;86.25
61018;BME280;48171;51.550;5.434;2022-10-16T13:55:12;101623.06;;;15.44;87.16
61018;BME280;48171;51.550;5.434;2022-10-16T13:57:37;101621.22;;;15.49;88.28
61018;BME280;48171;51.550;5.434;2022-10-16T14:00:03;101614.03;;;15.54;88.43
61018;BME280;48171;51.550;5.434;2022-10-16T14:02:42;101613.81;;;15.68;87.83
61018;BME280;48171;51.550;5.434;2022-10-16T14:05:09;101618.13;;;15.77;87.31
61018;BME280;48171;51.550;5.434;2022-10-16T14:07:36;101624.19;;;15.87;86.91
61018;BME280;48171;51.550;5.434;2022-10-16T14:10:05;101617.91;;;15.91;86.10
61018;BME280;48171;51.550;5.434;2022-10-16T14:12:31;101614.28;;;15.96;88.03
61018;BME280;48171;51.550;5.434;2022-10-16T14:14:58;101622.34;;;15.92;84.16
61018;BME280;48171;51.550;5.434;2022-10-16T14:17:29;101618.00;;;15.85;85.18
61018;BME280;48171;51.550;5.434;2022-10-16T14:19:59;101622.56;;;15.79;84.78
61018;BME280;48171;51.550;5.434;2022-10-16T14:22:34;101623.50;;;15.75;85.35